Terminal Aerodrome Forecast
Issued by NWS

Home | Current Version | Previous Version | Text Only | Print | Product List | Glossary On
Versions: 1 2 3 4 5 6 7 8 9 10 11 12 13 14 15 16 17 18 19 20 21
000
FTAK31 PAJN 071100
TAFAYA
TAF
PAYA 071125Z 0712/0812 VRB03KT 6SM BR OVC003
      TEMPO 0712/0715 00000KT 3SM BR
     FM071500 VRB03KT P6SM BCFG SCT004 BKN100
     FM071800 27005KT P6SM VCSH SCT020 BKN040 OVC080
     FM072100 27008KT P6SM -RA SCT020 OVC040
     FM080400 VRB04KT 6SM -RA BR BKN020 OVC040
     FM080800 00000KT 4SM -RA BR OVC020
      AMD LTD TO CLD VIS AND WIND 0801/0810=

USA.gov is the U.S. government's official web portal to all federal, state and local government web resources and services.